createdAt,value
2022-08-03T00:00:28.707Z,65.63
2022-08-03T00:03:30.593Z,64.98
2022-08-03T00:06:36.952Z,65.35
2022-08-03T00:09:39.134Z,65.02
2022-08-03T00:12:40.885Z,65.18
2022-08-03T00:15:43.379Z,65.76
2022-08-03T00:18:45.432Z,66.10
2022-08-03T00:21:47.245Z,66.27
2022-08-03T00:24:49.005Z,65.68
2022-08-03T00:27:50.861Z,66.29
2022-08-03T00:30:52.776Z,66.58
2022-08-03T00:33:58.166Z,66.19
2022-08-03T00:37:01.588Z,66.05
2022-08-03T00:40:04.159Z,65.53
2022-08-03T00:43:08.397Z,65.63
2022-08-03T00:46:10.421Z,65.47
2022-08-03T00:49:12.234Z,65.88
2022-08-03T00:52:15.487Z,65.51
2022-08-03T00:55:17.399Z,65.50
2022-08-03T00:58:19.498Z,65.32
2022-08-03T01:01:21.310Z,65.69
2022-08-03T01:04:23.126Z,65.10
2022-08-03T01:07:52.871Z,64.90
2022-08-03T01:11:15.735Z,63.32
2022-08-03T01:15:10.072Z,63.93
2022-08-03T01:18:25.914Z,64.03
2022-08-03T01:21:53.023Z,64.49
2022-08-03T01:25:07.366Z,65.33
2022-08-03T01:28:27.682Z,64.78
2022-08-03T01:33:02.784Z,64.52
2022-08-03T01:35:17.462Z,65.36
2022-08-03T01:38:33.645Z,65.80
2022-08-03T01:41:40.137Z,65.67
2022-08-03T01:44:44.260Z,65.61
2022-08-03T01:47:47.654Z,64.38
2022-08-03T01:50:51.301Z,64.99
2022-08-03T01:53:54.929Z,65.83
2022-08-03T01:56:59.034Z,65.51
2022-08-03T02:00:02.039Z,66.01
2022-08-03T02:03:13.863Z,66.09
2022-08-03T02:07:01.394Z,66.37
2022-08-03T02:09:41.637Z,66.46
2022-08-03T02:12:46.020Z,66.36
2022-08-03T02:15:49.321Z,66.89
2022-08-03T02:18:52.650Z,67.04
2022-08-03T02:21:57.408Z,66.87
2022-08-03T02:25:02.915Z,66.93
2022-08-03T02:28:11.709Z,67.22
2022-08-03T02:31:17.087Z,66.62
2022-08-03T02:34:23.255Z,66.47
2022-08-03T02:37:27.699Z,66.80
2022-08-03T02:40:31.396Z,67.06
2022-08-03T02:43:39.092Z,67.64
2022-08-03T02:47:02.422Z,67.21
2022-08-03T02:50:05.182Z,67.41
2022-08-03T02:53:07.945Z,67.24
2022-08-03T02:56:11.747Z,67.54
2022-08-03T02:59:14.965Z,67.23
2022-08-03T03:02:18.407Z,67.21
2022-08-03T03:05:54.595Z,68.09
2022-08-03T03:08:42.692Z,68.53
2022-08-03T03:11:45.042Z,68.77
2022-08-03T03:14:46.869Z,68.44
2022-08-03T03:17:50.182Z,68.25
2022-08-03T03:20:53.253Z,68.39
2022-08-03T03:23:55.386Z,68.68
2022-08-03T03:26:57.998Z,68.38
2022-08-03T03:30:00.023Z,68.29
2022-08-03T03:33:02.931Z,68.75
2022-08-03T03:36:07.711Z,68.73
2022-08-03T03:39:15.941Z,68.13
2022-08-03T03:42:18.111Z,68.20
2022-08-03T03:45:21.795Z,68.58
2022-08-03T03:48:25.584Z,68.18
2022-08-03T03:51:27.357Z,67.35
2022-08-03T03:54:41.336Z,66.85
2022-08-03T03:57:43.030Z,66.68
2022-08-03T04:00:45.344Z,65.96
2022-08-03T04:03:47.179Z,66.20
2022-08-03T04:07:07.667Z,66.01
2022-08-03T04:10:35.550Z,66.01
2022-08-03T04:13:41.088Z,65.45
2022-08-03T04:16:49.219Z,65.76
2022-08-03T04:19:53.881Z,65.61
2022-08-03T04:23:00.070Z,62.47
2022-08-03T04:26:02.793Z,58.33
2022-08-03T04:29:06.646Z,55.72
2022-08-03T04:32:10.282Z,53.53
2022-08-03T04:35:12.129Z,51.48
2022-08-03T04:38:18.444Z,51.08
2022-08-03T04:41:23.085Z,51.92
2022-08-03T04:44:28.480Z,53.16
2022-08-03T04:47:33.193Z,54.36
2022-08-03T04:50:35.863Z,55.03
2022-08-03T04:53:41.086Z,56.06
2022-08-03T04:56:43.733Z,57.11
2022-08-03T04:59:45.502Z,56.96
2022-08-03T05:02:47.279Z,57.44
2022-08-03T05:05:49.933Z,56.82
2022-08-03T05:08:52.596Z,56.85
2022-08-03T05:11:54.345Z,57.60
2022-08-03T05:14:56.499Z,58.42
2022-08-03T05:17:58.386Z,58.64
2022-08-03T05:21:01.211Z,58.06
2022-08-03T05:24:03.080Z,58.75
2022-08-03T05:27:05.502Z,58.51
2022-08-03T05:30:29.787Z,57.54
2022-08-03T05:33:30.511Z,56.80
2022-08-03T05:36:32.282Z,55.75
2022-08-03T05:39:34.881Z,54.93
2022-08-03T05:42:39.495Z,54.79
2022-08-03T05:45:41.520Z,54.04
2022-08-03T05:48:43.535Z,54.70
2022-08-03T05:51:45.973Z,53.65
2022-08-03T05:54:56.678Z,52.80
2022-08-03T05:57:59.380Z,52.07
2022-08-03T06:01:01.090Z,51.65
2022-08-03T06:04:02.825Z,51.45
2022-08-03T06:07:04.562Z,51.18
2022-08-03T06:10:35.438Z,50.81
2022-08-03T06:13:29.443Z,50.27
2022-08-03T06:16:31.391Z,49.51
2022-08-03T06:19:33.092Z,49.42
2022-08-03T06:22:34.838Z,48.95
2022-08-03T06:25:36.938Z,48.15
2022-08-03T06:28:53.038Z,48.15
2022-08-03T06:31:55.646Z,46.60
2022-08-03T06:34:57.350Z,46.86
2022-08-03T06:37:59.262Z,45.68
2022-08-03T06:41:02.245Z,44.90
2022-08-03T06:44:04.664Z,45.30
2022-08-03T06:47:06.486Z,43.77
2022-08-03T06:50:16.207Z,43.68
2022-08-03T06:53:21.456Z,43.34
2022-08-03T06:56:23.403Z,42.77
2022-08-03T07:00:10.871Z,42.42
2022-08-03T07:02:47.409Z,42.98
2022-08-03T07:05:49.892Z,42.13
2022-08-03T07:08:54.498Z,40.66
2022-08-03T07:11:58.849Z,40.03
2022-08-03T07:15:03.168Z,40.20
2022-08-03T07:18:05.430Z,39.86
2022-08-03T07:21:09.131Z,40.26
2022-08-03T07:24:11.029Z,40.21
2022-08-03T07:27:12.762Z,40.25
2022-08-03T07:30:15.682Z,39.92
2022-08-03T07:33:17.526Z,39.52
2022-08-03T07:36:19.335Z,37.59
2022-08-03T07:39:21.042Z,36.96
2022-08-03T07:42:23.992Z,37.74
2022-08-03T07:45:26.775Z,36.46
2022-08-03T07:48:28.824Z,35.77
2022-08-03T07:51:30.671Z,34.08
2022-08-03T07:54:32.415Z,33.79
2022-08-03T07:57:35.033Z,34.57
2022-08-03T08:00:36.949Z,33.66
2022-08-03T08:03:42.002Z,33.91
2022-08-03T08:06:54.841Z,33.54
2022-08-03T08:09:56.681Z,33.56
2022-08-03T08:12:58.966Z,32.57
2022-08-03T08:16:01.235Z,32.92
2022-08-03T08:19:02.969Z,32.57
2022-08-03T08:22:06.629Z,31.91
2022-08-03T08:25:08.970Z,31.57
2022-08-03T08:28:31.452Z,30.49
2022-08-03T08:31:32.596Z,31.19
2022-08-03T08:34:34.324Z,30.55
2022-08-03T08:37:36.215Z,31.74
2022-08-03T08:40:38.001Z,30.36
2022-08-03T08:43:40.328Z,30.67
2022-08-03T08:46:42.903Z,29.85
2022-08-03T08:50:04.047Z,30.35
2022-08-03T08:53:17.533Z,29.68
2022-08-03T08:56:25.614Z,29.79
2022-08-03T08:59:27.932Z,28.37
2022-08-03T09:02:49.788Z,29.35
2022-08-03T09:05:56.300Z,30.33
2022-08-03T09:08:58.346Z,28.25
2022-08-03T09:12:14.614Z,28.32
2022-08-03T09:15:28.096Z,28.95
2022-08-03T09:18:33.377Z,29.30
2022-08-03T09:21:35.178Z,28.75
2022-08-03T09:24:41.593Z,28.09
2022-08-03T09:27:45.326Z,28.43
2022-08-03T09:30:59.681Z,28.10
2022-08-03T09:34:09.580Z,27.34
2022-08-03T09:37:16.448Z,28.44
2022-08-03T09:40:36.331Z,27.17
2022-08-03T09:43:47.171Z,27.68
2022-08-03T09:46:54.441Z,26.62
2022-08-03T09:50:07.883Z,25.99
2022-08-03T09:53:09.644Z,26.27
2022-08-03T09:56:35.257Z,25.56
2022-08-03T09:59:34.234Z,24.64
2022-08-03T10:02:37.792Z,24.55
2022-08-03T10:05:44.524Z,25.48
2022-08-03T10:09:14.178Z,25.46
2022-08-03T10:12:16.100Z,25.20
2022-08-03T10:16:21.916Z,25.82
2022-08-03T10:18:40.819Z,24.53
2022-08-03T10:21:53.616Z,25.15
2022-08-03T10:25:04.190Z,24.83
2022-08-03T10:28:08.111Z,24.44
2022-08-03T10:31:10.765Z,24.65
2022-08-03T10:34:19.293Z,23.55
2022-08-03T10:37:23.873Z,25.55
2022-08-03T10:43:56.726Z,24.82
2022-08-03T10:46:58.676Z,23.83
2022-08-03T10:50:01.358Z,22.36
2022-08-03T10:53:07.207Z,22.70
2022-08-03T10:56:54.693Z,20.62
2022-08-03T10:59:58.341Z,22.04
2022-08-03T11:03:06.708Z,21.86
2022-08-03T11:06:19.657Z,21.11
2022-08-03T11:09:21.566Z,19.36
2022-08-03T11:12:34.029Z,18.92
2022-08-03T11:15:36.075Z,19.35
2022-08-03T11:18:56.463Z,18.75
2022-08-03T11:21:59.217Z,19.07
2022-08-03T11:25:01.757Z,19.30
2022-08-03T11:28:27.050Z,18.53
2022-08-03T11:31:49.153Z,18.69
2022-08-03T11:35:07.369Z,19.82
2022-08-03T11:38:10.384Z,20.68
2022-08-03T11:41:43.308Z,20.03
2022-08-03T11:44:47.989Z,19.84
2022-08-03T11:47:54.645Z,20.44
2022-08-03T11:50:57.075Z,19.57
2022-08-03T11:54:03.961Z,19.41
2022-08-03T11:57:05.737Z,19.09
2022-08-03T12:00:26.751Z,18.83
2022-08-03T12:03:33.195Z,19.02
2022-08-03T12:06:54.980Z,19.26
2022-08-03T12:10:11.573Z,19.17
2022-08-03T12:13:56.797Z,19.65
2022-08-03T12:16:35.232Z,19.31
2022-08-03T12:19:43.862Z,20.63
2022-08-03T12:22:45.603Z,19.13
2022-08-03T12:25:49.504Z,19.24
2022-08-03T12:28:51.535Z,20.02
2022-08-03T12:31:53.310Z,19.79
2022-08-03T12:35:01.571Z,20.89
2022-08-03T12:38:03.809Z,19.71
2022-08-03T12:41:16.601Z,18.32
2022-08-03T12:44:18.540Z,18.07
2022-08-03T12:47:20.689Z,18.72
2022-08-03T12:50:28.701Z,18.83
2022-08-03T12:53:30.468Z,18.98
2022-08-03T12:56:32.342Z,18.54
2022-08-03T12:59:41.151Z,18.04
2022-08-03T13:02:46.369Z,17.81
2022-08-03T13:05:48.400Z,17.36
2022-08-03T13:09:02.293Z,18.00
2022-08-03T13:12:11.429Z,17.75
2022-08-03T13:15:13.404Z,19.17
2022-08-03T13:18:17.278Z,18.60
2022-08-03T13:21:20.799Z,17.53
2022-08-03T13:24:22.683Z,17.16
2022-08-03T13:28:10.997Z,18.10
2022-08-03T13:30:47.399Z,17.66
2022-08-03T13:33:49.155Z,17.13
2022-08-03T13:37:09.398Z,17.08
2022-08-03T13:40:11.918Z,17.06
2022-08-03T13:43:16.503Z,17.27
2022-08-03T13:46:18.284Z,17.53
2022-08-03T13:49:20.067Z,18.48
2022-08-03T13:52:21.810Z,17.42
2022-08-03T13:55:23.704Z,17.80
2022-08-03T13:58:25.479Z,18.75
2022-08-03T14:01:54.342Z,18.34
2022-08-03T14:04:49.164Z,18.31
2022-08-03T14:07:50.879Z,17.91
2022-08-03T14:10:58.779Z,17.22
2022-08-03T14:14:00.463Z,17.59
2022-08-03T14:17:02.228Z,17.09
2022-08-03T14:20:09.547Z,17.01
2022-08-03T14:23:28.073Z,19.12
2022-08-03T14:26:30.416Z,19.25
2022-08-03T14:29:32.244Z,18.70
2022-08-03T14:32:33.961Z,18.59
2022-08-03T14:35:35.849Z,18.47
2022-08-03T14:38:37.757Z,18.33
2022-08-03T14:41:39.654Z,18.50
2022-08-03T14:44:41.759Z,20.00
2022-08-03T14:50:24.538Z,19.88
2022-08-03T14:51:05.972Z,19.14
2022-08-03T14:54:07.703Z,19.29
2022-08-03T14:57:09.533Z,18.45
2022-08-03T15:00:11.938Z,19.08
2022-08-03T15:03:16.807Z,18.59
2022-08-03T15:06:19.188Z,19.40
2022-08-03T15:09:23.856Z,18.97
2022-08-03T15:12:26.248Z,20.37
2022-08-03T15:15:27.999Z,19.86
2022-08-03T15:18:29.751Z,19.16
2022-08-03T15:21:46.898Z,19.64
2022-08-03T15:24:49.774Z,19.71
2022-08-03T15:28:03.808Z,20.42
2022-08-03T15:31:06.756Z,21.08
2022-08-03T15:34:08.560Z,20.00
2022-08-03T15:37:16.221Z,20.64
2022-08-03T15:40:26.379Z,21.11
2022-08-03T15:43:28.192Z,20.64
2022-08-03T15:46:30.288Z,21.19
2022-08-03T15:49:32.643Z,20.18
2022-08-03T15:52:36.246Z,20.70
2022-08-03T15:55:38.088Z,20.50
2022-08-03T15:59:03.385Z,21.00
2022-08-03T16:02:01.954Z,21.00
2022-08-03T16:05:03.960Z,20.79
2022-08-03T16:08:10.297Z,20.17
2022-08-03T16:11:16.129Z,19.55
2022-08-03T16:14:34.818Z,19.42
2022-08-03T16:17:40.860Z,19.52
2022-08-03T16:20:42.683Z,18.89
2022-08-03T16:23:47.306Z,18.92
2022-08-03T16:26:49.395Z,19.42
2022-08-03T16:29:51.301Z,20.54
2022-08-03T16:32:53.032Z,21.41
2022-08-03T16:35:55.071Z,20.96
2022-08-03T16:38:56.896Z,20.95
2022-08-03T16:42:01.350Z,20.91
2022-08-03T16:45:04.347Z,21.28
2022-08-03T16:48:06.337Z,20.99
2022-08-03T16:51:08.192Z,21.29
2022-08-03T16:54:12.388Z,20.93
2022-08-03T16:57:15.864Z,21.21
2022-08-03T17:00:34.149Z,21.51
2022-08-03T17:03:57.383Z,22.13
2022-08-03T17:07:02.931Z,22.26
2022-08-03T17:10:06.853Z,22.00
2022-08-03T17:13:08.694Z,22.00
2022-08-03T17:16:12.145Z,22.54
2022-08-03T17:19:18.143Z,23.16
2022-08-03T17:22:24.652Z,23.19
2022-08-03T17:25:51.441Z,21.94
2022-08-03T17:28:58.142Z,19.78
2022-08-03T17:32:06.521Z,20.28
2022-08-03T17:35:11.337Z,20.33
2022-08-03T17:38:17.480Z,19.71
2022-08-03T17:41:23.320Z,19.81
2022-08-03T17:44:33.058Z,19.54
2022-08-03T17:47:57.605Z,20.72
2022-08-03T17:51:06.660Z,21.82
2022-08-03T17:54:23.808Z,22.29
2022-08-03T17:58:01.352Z,23.52
2022-08-03T18:02:00.164Z,24.23
2022-08-03T18:04:57.297Z,24.65
2022-08-03T18:08:04.917Z,25.02
2022-08-03T18:11:14.434Z,25.67
2022-08-03T18:14:29.833Z,26.16
2022-08-03T18:17:54.978Z,26.12
2022-08-03T18:21:16.688Z,27.19
2022-08-03T18:24:20.060Z,27.85
2022-08-03T18:27:42.387Z,27.89
2022-08-03T18:32:03.053Z,28.71
2022-08-03T18:35:28.306Z,27.94
2022-08-03T18:38:55.690Z,28.48
2022-08-03T18:42:05.508Z,28.60
2022-08-03T18:45:15.062Z,29.28
2022-08-03T18:53:23.680Z,29.34
2022-08-03T18:57:10.060Z,29.95
2022-08-03T19:00:24.426Z,30.74
2022-08-03T19:04:06.196Z,31.75
2022-08-03T19:07:27.259Z,33.69
2022-08-03T19:10:36.878Z,35.67
2022-08-03T19:13:50.282Z,35.12
2022-08-03T19:17:00.111Z,34.34
2022-08-03T19:20:05.439Z,33.50
2022-08-03T19:23:08.220Z,34.03
2022-08-03T19:26:29.950Z,33.40
2022-08-03T19:29:59.387Z,33.55
2022-08-03T19:33:05.001Z,34.38
2022-08-03T19:36:27.311Z,34.46
2022-08-03T19:39:36.149Z,35.25
2022-08-03T19:42:50.379Z,37.38
2022-08-03T19:50:06.283Z,36.72
2022-08-03T19:53:16.152Z,36.57
2022-08-03T19:56:22.984Z,36.45
2022-08-03T19:59:36.758Z,36.37
2022-08-03T20:02:41.542Z,36.82
2022-08-03T20:05:52.313Z,36.27
2022-08-03T20:08:57.619Z,36.40
2022-08-03T20:12:00.488Z,35.67
2022-08-03T20:15:04.295Z,35.36
2022-08-03T20:18:06.098Z,35.20
2022-08-03T20:21:19.888Z,35.20
2022-08-03T20:24:29.358Z,35.37
2022-08-03T20:28:07.082Z,35.85
2022-08-03T20:31:09.342Z,36.21
2022-08-03T20:34:11.119Z,36.99
2022-08-03T20:37:19.308Z,36.90
2022-08-03T20:40:23.075Z,36.96
2022-08-03T20:43:29.316Z,37.01
2022-08-03T20:46:46.474Z,37.21
2022-08-03T20:49:54.243Z,37.97
2022-08-03T20:52:59.036Z,38.03
2022-08-03T20:56:04.812Z,38.15
2022-08-03T20:59:14.874Z,38.66
2022-08-03T21:02:19.805Z,39.35
2022-08-03T21:05:48.298Z,40.26
2022-08-03T21:09:00.061Z,41.40
2022-08-03T21:12:03.657Z,41.26
2022-08-03T21:15:09.346Z,41.11
2022-08-03T21:18:20.296Z,41.16
2022-08-03T21:21:23.531Z,41.43
2022-08-03T21:24:30.593Z,41.72
2022-08-03T21:27:32.656Z,41.69
2022-08-03T21:30:35.166Z,42.36
2022-08-03T21:33:36.978Z,42.54
2022-08-03T21:36:38.780Z,42.94
2022-08-03T21:39:50.840Z,42.77
2022-08-03T21:42:52.919Z,42.98
2022-08-03T21:46:03.112Z,43.56
2022-08-03T21:49:51.958Z,43.91
2022-08-03T21:52:40.435Z,44.24
2022-08-03T21:55:57.782Z,44.76
2022-08-03T21:59:16.144Z,44.97
2022-08-03T22:02:24.249Z,45.73
2022-08-03T22:05:42.910Z,45.76
2022-08-03T22:08:47.518Z,45.19
2022-08-03T22:11:54.013Z,45.52
2022-08-03T22:15:01.054Z,45.53
2022-08-03T22:18:04.263Z,45.71
2022-08-03T22:21:09.044Z,45.75
2022-08-03T22:24:11.552Z,46.31
2022-08-03T22:27:30.137Z,46.10
2022-08-03T22:30:33.279Z,46.73
2022-08-03T22:33:36.482Z,47.12
2022-08-03T22:36:40.572Z,46.79
2022-08-03T22:39:43.762Z,47.09
2022-08-03T22:42:47.481Z,47.33
2022-08-03T22:46:10.208Z,47.49
2022-08-03T22:49:16.415Z,47.69
2022-08-03T22:52:18.413Z,48.28
2022-08-03T22:55:24.801Z,49.13
2022-08-03T22:58:26.832Z,48.56
2022-08-03T23:01:33.028Z,48.03
2022-08-03T23:04:39.174Z,48.55
2022-08-03T23:07:41.712Z,47.74
2022-08-03T23:10:47.239Z,48.54
2022-08-03T23:13:53.422Z,49.10
2022-08-03T23:16:56.292Z,48.87
2022-08-03T23:20:08.916Z,49.22
2022-08-03T23:23:11.529Z,49.34
2022-08-03T23:26:16.185Z,49.60
2022-08-03T23:29:20.372Z,48.98
2022-08-03T23:32:25.074Z,49.29
2022-08-03T23:36:29.668Z,49.41
2022-08-03T23:39:08.711Z,49.40
2022-08-03T23:42:13.107Z,49.51
2022-08-03T23:45:18.280Z,49.44
2022-08-03T23:48:20.010Z,49.61
2022-08-03T23:52:09.142Z,49.69
2022-08-03T23:55:22.057Z,49.48
2022-08-03T23:58:45.040Z,50.60
